Time;durP1;ratioP1;P1;durP2;ratioP2;P2;SDS_P1;SDS_P2;PMS_P1;PMS_P2;Temp;Humidity;BMP_temperature;BMP_pressure;BME280_temperature;BME280_humidity;BME280_pressure;Samples;Min_cycle;Max_cycle;Signal;HPM_P1;HPM_P2
2021/11/07 00:06:50;;;;;;;;;;;18.00;68.40;;;;;;4976477;28;19956;-45
2021/11/07 00:11:56;;;;;;;;;;;18.00;68.40;;;;;;4976383;28;19930;-47
2021/11/07 00:14:23;;;;;;;;;;;18.00;68.30;;;;;;4976311;28;19984;-47
2021/11/07 00:16:50;;;;;;;;;;;18.00;68.40;;;;;;4975468;28;19934;-46
2021/11/07 00:22:15;;;;;;;;;;;18.00;68.40;;;;;;4976495;28;19930;-45
2021/11/07 00:30:04;;;;;;;;;;;18.00;68.50;;;;;;4976310;28;19981;-45
2021/11/07 00:37:33;;;;;;;;;;;18.00;68.50;;;;;;4956550;28;19978;-50
2021/11/07 00:42:42;;;;;;;;;;;18.00;68.50;;;;;;4956449;28;20378;-45
2021/11/07 00:48:11;;;;;;;;;;;18.00;68.50;;;;;;4963841;28;19965;-48
2021/11/07 00:50:56;;;;;;;;;;;18.00;68.50;;;;;;4974766;28;19926;-45
2021/11/07 00:53:41;;;;;;;;;;;18.00;68.60;;;;;;4975311;28;19977;-50
2021/11/07 00:56:30;;;;;;;;;;;18.00;68.60;;;;;;4975854;28;20021;-48
2021/11/07 00:59:09;;;;;;;;;;;18.00;68.60;;;;;;4975830;28;19965;-45
2021/11/07 01:01:40;;;;;;;;;;;18.00;68.60;;;;;;4975687;28;19926;-45
2021/11/07 01:04:10;;;;;;;;;;;18.00;68.60;;;;;;4973964;28;20444;-46
2021/11/07 01:06:38;;;;;;;;;;;18.00;68.60;;;;;;4956387;28;20350;-48
2021/11/07 01:09:05;;;;;;;;;;;18.00;68.50;;;;;;4956305;28;19926;-45
2021/11/07 01:11:32;;;;;;;;;;;18.00;68.60;;;;;;4955983;28;19927;-45
2021/11/07 01:14:00;;;;;;;;;;;18.00;68.60;;;;;;4955956;28;19926;-44
2021/11/07 01:16:27;;;;;;;;;;;18.00;68.60;;;;;;4955890;28;19927;-45
2021/11/07 01:18:54;;;;;;;;;;;18.00;68.60;;;;;;4968806;28;19953;-44
2021/11/07 01:21:21;;;;;;;;;;;18.00;68.60;;;;;;4974398;28;19930;-44
2021/11/07 01:24:02;;;;;;;;;;;18.00;68.60;;;;;;4975345;28;19933;-45
2021/11/07 01:26:34;;;;;;;;;;;18.00;68.60;;;;;;4975148;28;20385;-44
2021/11/07 01:29:10;;;;;;;;;;;18.00;68.60;;;;;;4975427;28;19926;-44
2021/11/07 01:31:38;;;;;;;;;;;18.00;68.60;;;;;;4975104;28;19982;-44
2021/11/07 01:34:08;;;;;;;;;;;18.00;68.60;;;;;;4974171;28;19980;-45
2021/11/07 01:37:14;;;;;;;;;;;18.00;68.60;;;;;;4974302;28;19926;-45
2021/11/07 01:42:07;;;;;;;;;;;18.00;68.60;;;;;;4974993;28;19926;-44
2021/11/07 01:44:36;;;;;;;;;;;18.00;68.60;;;;;;4975276;28;19980;-46
2021/11/07 01:47:03;;;;;;;;;;;18.00;68.60;;;;;;4975125;28;19933;-44
2021/11/07 01:49:36;;;;;;;;;;;18.00;68.70;;;;;;4974232;28;19926;-45
2021/11/07 01:52:07;;;;;;;;;;;18.10;68.80;;;;;;4973367;28;19929;-45
2021/11/07 01:55:18;;;;;;;;;;;18.00;68.70;;;;;;4974733;28;19992;-44
2021/11/07 01:57:26;;;;;;;;;;;18.00;68.70;;;;;;4969523;28;20394;-45
2021/11/07 01:59:59;;;;;;;;;;;18.00;68.70;;;;;;4978827;28;19930;-45
2021/11/07 02:02:28;;;;;;;;;;;18.00;68.70;;;;;;4979005;28;19926;-45
2021/11/07 02:04:55;;;;;;;;;;;18.00;68.70;;;;;;4977254;28;19926;-45
2021/11/07 02:07:23;;;;;;;;;;;18.00;68.70;;;;;;4978907;28;19932;-47
2021/11/07 02:09:50;;;;;;;;;;;18.00;68.70;;;;;;4978856;28;19926;-44
2021/11/07 02:12:18;;;;;;;;;;;18.00;68.80;;;;;;4978820;28;19930;-45
2021/11/07 02:14:45;;;;;;;;;;;18.00;68.70;;;;;;4978456;28;19985;-46
2021/11/07 02:17:12;;;;;;;;;;;18.00;68.80;;;;;;4978640;28;19961;-45
2021/11/07 02:19:44;;;;;;;;;;;18.00;68.80;;;;;;4977424;28;19926;-44
2021/11/07 02:22:11;;;;;;;;;;;18.00;68.80;;;;;;4960702;28;19966;-44
2021/11/07 02:24:40;;;;;;;;;;;18.00;68.80;;;;;;4959184;28;20005;-46
2021/11/07 02:27:07;;;;;;;;;;;18.00;68.80;;;;;;4958104;29;19926;-44
2021/11/07 02:29:36;;;;;;;;;;;18.00;68.90;;;;;;4958879;28;19976;-45
2021/11/07 02:32:04;;;;;;;;;;;18.00;68.90;;;;;;4959140;28;20013;-47
2021/11/07 02:34:32;;;;;;;;;;;18.00;68.90;;;;;;4970029;28;20456;-48
2021/11/07 02:37:00;;;;;;;;;;;18.00;68.90;;;;;;4977570;28;19926;-46
2021/11/07 02:39:27;;;;;;;;;;;18.00;68.90;;;;;;4978324;28;19926;-49
2021/11/07 02:41:58;;;;;;;;;;;18.00;68.90;;;;;;4978219;28;19934;-51
2021/11/07 02:44:30;;;;;;;;;;;18.00;68.90;;;;;;4978237;28;20325;-49
2021/11/07 02:46:58;;;;;;;;;;;18.00;68.90;;;;;;4978044;28;19926;-49
2021/11/07 02:49:25;;;;;;;;;;;18.00;68.90;;;;;;4977181;28;19926;-51
2021/11/07 02:51:54;;;;;;;;;;;18.00;68.90;;;;;;4965469;28;20294;-50
2021/11/07 02:54:21;;;;;;;;;;;18.00;69.00;;;;;;4958349;28;19926;-50
2021/11/07 02:56:49;;;;;;;;;;;18.00;69.00;;;;;;4958673;28;19927;-52
2021/11/07 02:59:20;;;;;;;;;;;18.00;69.00;;;;;;4958671;28;19965;-48
2021/11/07 03:01:47;;;;;;;;;;;18.00;69.00;;;;;;4958227;28;19926;-49
2021/11/07 03:04:15;;;;;;;;;;;18.00;69.00;;;;;;4965052;28;19937;-51
2021/11/07 03:06:43;;;;;;;;;;;18.00;69.00;;;;;;4976829;28;19926;-51
2021/11/07 03:09:12;;;;;;;;;;;18.00;69.10;;;;;;4977526;28;19933;-47
2021/11/07 03:11:41;;;;;;;;;;;18.00;69.10;;;;;;4977449;28;19926;-50
2021/11/07 03:14:13;;;;;;;;;;;18.00;69.10;;;;;;4977741;28;19977;-50
2021/11/07 03:16:42;;;;;;;;;;;18.00;69.10;;;;;;4977729;28;19930;-48
2021/11/07 03:19:10;;;;;;;;;;;18.00;69.10;;;;;;4976322;28;19986;-46
2021/11/07 03:21:38;;;;;;;;;;;18.00;69.10;;;;;;4976335;28;20385;-48
2021/11/07 03:24:06;;;;;;;;;;;18.00;69.10;;;;;;4977437;28;19930;-44
2021/11/07 03:26:35;;;;;;;;;;;18.00;69.10;;;;;;4992420;28;19926;-44
2021/11/07 03:29:04;;;;;;;;;;;18.00;69.10;;;;;;4977462;28;19949;-48
2021/11/07 03:31:47;;;;;;;;;;;18.00;69.10;;;;;;4977097;28;19926;-45
2021/11/07 03:34:26;;;;;;;;;;;18.00;69.10;;;;;;4976125;28;20337;-44
2021/11/07 03:36:55;;;;;;;;;;;18.00;69.20;;;;;;4976106;28;19930;-44
2021/11/07 03:39:23;;;;;;;;;;;18.00;69.10;;;;;;4977259;28;19930;-44
2021/11/07 03:41:51;;;;;;;;;;;18.00;69.10;;;;;;4976773;28;19926;-44
2021/11/07 03:44:20;;;;;;;;;;;18.00;69.20;;;;;;4977093;28;19926;-46
2021/11/07 03:46:48;;;;;;;;;;;18.00;69.20;;;;;;4976989;28;20381;-44
2021/11/07 03:49:16;;;;;;;;;;;18.00;69.20;;;;;;4976105;28;19930;-44
2021/11/07 03:51:44;;;;;;;;;;;18.00;69.20;;;;;;4975958;28;19926;-46
2021/11/07 03:54:12;;;;;;;;;;;18.00;69.20;;;;;;4976577;28;19969;-44
2021/11/07 03:56:39;;;;;;;;;;;18.00;69.20;;;;;;4976644;28;19973;-44
2021/11/07 03:59:06;;;;;;;;;;;18.00;69.20;;;;;;4976904;28;19926;-47
2021/11/07 04:01:36;;;;;;;;;;;18.00;69.20;;;;;;4976464;28;19973;-46
2021/11/07 04:04:04;;;;;;;;;;;18.00;69.20;;;;;;4975648;28;19981;-51
2021/11/07 04:06:31;;;;;;;;;;;18.00;69.20;;;;;;4959660;28;19934;-45
2021/11/07 04:09:00;;;;;;;;;;;18.00;69.20;;;;;;4976704;28;19959;-44
2021/11/07 04:11:27;;;;;;;;;;;18.00;69.20;;;;;;4976357;28;19981;-45
2021/11/07 04:13:54;;;;;;;;;;;18.00;69.20;;;;;;4976333;28;20004;-44
2021/11/07 04:16:21;;;;;;;;;;;18.00;69.20;;;;;;4976491;28;20011;-44
2021/11/07 04:18:48;;;;;;;;;;;18.00;69.20;;;;;;4976220;28;19930;-45
2021/11/07 04:21:15;;;;;;;;;;;18.00;69.30;;;;;;4974136;28;19933;-45
2021/11/07 04:23:42;;;;;;;;;;;18.00;69.30;;;;;;4975577;28;19930;-44
2021/11/07 04:26:10;;;;;;;;;;;18.00;69.30;;;;;;4976048;28;20390;-45
2021/11/07 04:28:36;;;;;;;;;;;18.00;69.30;;;;;;4976337;28;19927;-44
2021/11/07 04:31:04;;;;;;;;;;;18.00;69.30;;;;;;4976284;28;20279;-44
2021/11/07 04:33:31;;;;;;;;;;;18.00;69.30;;;;;;4975946;28;19981;-44
2021/11/07 04:35:59;;;;;;;;;;;18.00;69.30;;;;;;4974964;28;20445;-44
2021/11/07 04:38:28;;;;;;;;;;;18.00;69.40;;;;;;4975315;28;20333;-45
2021/11/07 04:40:55;;;;;;;;;;;18.00;69.30;;;;;;4976044;28;19930;-45
2021/11/07 04:43:23;;;;;;;;;;;18.00;69.40;;;;;;4976089;28;19926;-45
2021/11/07 04:45:50;;;;;;;;;;;18.00;69.40;;;;;;4975659;28;20013;-45
2021/11/07 04:48:18;;;;;;;;;;;18.00;69.40;;;;;;4975993;28;19926;-44
2021/11/07 04:50:46;;;;;;;;;;;18.00;69.40;;;;;;4974965;28;20345;-45
2021/11/07 04:53:14;;;;;;;;;;;17.90;69.40;;;;;;4974675;28;20448;-44
2021/11/07 04:55:42;;;;;;;;;;;18.00;69.50;;;;;;4975393;28;19926;-44
2021/11/07 04:58:09;;;;;;;;;;;18.00;69.50;;;;;;4975809;28;20351;-44
2021/11/07 05:00:37;;;;;;;;;;;17.90;69.40;;;;;;4975700;28;19974;-44
2021/11/07 05:03:05;;;;;;;;;;;18.00;69.50;;;;;;4975430;28;19932;-44
2021/11/07 05:05:32;;;;;;;;;;;17.90;69.40;;;;;;4974494;28;20393;-44
2021/11/07 05:07:59;;;;;;;;;;;18.00;69.50;;;;;;4975037;28;20336;-48
2021/11/07 05:10:26;;;;;;;;;;;17.90;69.40;;;;;;4975659;28;19980;-44
2021/11/07 05:12:53;;;;;;;;;;;18.00;69.60;;;;;;4975637;28;19926;-45
2021/11/07 05:15:21;;;;;;;;;;;18.00;69.60;;;;;;4975576;28;19930;-45
2021/11/07 05:17:48;;;;;;;;;;;17.90;69.50;;;;;;4975479;28;19926;-45
2021/11/07 05:20:15;;;;;;;;;;;17.90;69.50;;;;;;4974529;28;19929;-45
2021/11/07 05:22:42;;;;;;;;;;;17.90;69.50;;;;;;4974407;28;19926;-45
2021/11/07 05:25:11;;;;;;;;;;;17.90;69.50;;;;;;4975127;28;19926;-45
2021/11/07 05:27:38;;;;;;;;;;;17.90;69.50;;;;;;4975409;28;19926;-44
2021/11/07 05:30:07;;;;;;;;;;;17.90;69.50;;;;;;4975080;28;20436;-48
2021/11/07 05:32:34;;;;;;;;;;;17.90;69.50;;;;;;4975029;28;19977;-45
2021/11/07 05:35:01;;;;;;;;;;;17.90;69.50;;;;;;4974546;28;19993;-52
2021/11/07 05:37:28;;;;;;;;;;;17.90;69.50;;;;;;4974325;28;20289;-51
2021/11/07 05:39:55;;;;;;;;;;;17.90;69.50;;;;;;4990182;28;20334;-48
2021/11/07 05:42:22;;;;;;;;;;;17.90;69.60;;;;;;4975172;28;19926;-50
2021/11/07 05:44:49;;;;;;;;;;;18.00;69.70;;;;;;4990073;28;19981;-46
2021/11/07 05:47:16;;;;;;;;;;;17.90;69.60;;;;;;4974826;28;19977;-46
2021/11/07 05:49:43;;;;;;;;;;;17.90;69.60;;;;;;4975164;28;19997;-44
2021/11/07 05:52:10;;;;;;;;;;;17.90;69.60;;;;;;4974197;28;19930;-45
2021/11/07 05:54:37;;;;;;;;;;;18.00;69.70;;;;;;4973782;28;19926;-45
2021/11/07 05:57:04;;;;;;;;;;;17.90;69.60;;;;;;4974831;28;20580;-45
2021/11/07 05:59:31;;;;;;;;;;;18.00;69.60;;;;;;4974811;28;20381;-45
2021/11/07 06:01:58;;;;;;;;;;;18.00;69.70;;;;;;4974989;28;19985;-46
2021/11/07 06:04:25;;;;;;;;;;;17.90;69.60;;;;;;4989906;28;19930;-45
2021/11/07 06:06:52;;;;;;;;;;;17.90;69.60;;;;;;4973992;28;19949;-45
2021/11/07 06:09:19;;;;;;;;;;;18.00;69.70;;;;;;4974127;28;20342;-45
2021/11/07 06:11:46;;;;;;;;;;;17.90;69.60;;;;;;4974679;28;19926;-44
2021/11/07 06:14:13;;;;;;;;;;;17.90;69.60;;;;;;4974690;28;19926;-45
2021/11/07 06:16:41;;;;;;;;;;;18.00;69.70;;;;;;4974582;28;19927;-45
2021/11/07 06:19:08;;;;;;;;;;;18.00;69.70;;;;;;4974611;28;19933;-45
2021/11/07 06:21:36;;;;;;;;;;;18.00;69.70;;;;;;4973769;28;19989;-45
2021/11/07 06:24:07;;;;;;;;;;;18.00;69.70;;;;;;4973760;28;19953;-45
2021/11/07 06:26:34;;;;;;;;;;;18.00;69.70;;;;;;4974869;28;19997;-51
2021/11/07 06:29:01;;;;;;;;;;;18.00;69.70;;;;;;4974847;28;19966;-52
2021/11/07 06:31:29;;;;;;;;;;;18.00;69.70;;;;;;4974813;28;19973;-49
2021/11/07 06:33:56;;;;;;;;;;;18.00;69.80;;;;;;4974471;28;19926;-49
2021/11/07 06:36:23;;;;;;;;;;;18.00;69.70;;;;;;4973823;28;19930;-47
2021/11/07 06:38:50;;;;;;;;;;;18.00;69.70;;;;;;4973823;28;19973;-50
2021/11/07 06:41:17;;;;;;;;;;;18.00;69.80;;;;;;4974653;28;19932;-49
2021/11/07 06:43:44;;;;;;;;;;;18.00;69.70;;;;;;4974547;28;19933;-51
2021/11/07 06:46:11;;;;;;;;;;;18.00;69.70;;;;;;4978134;28;19926;-49
2021/11/07 06:48:38;;;;;;;;;;;18.00;69.70;;;;;;4978170;28;19926;-48
2021/11/07 06:51:06;;;;;;;;;;;18.00;69.70;;;;;;4977173;28;19934;-45
2021/11/07 06:53:35;;;;;;;;;;;18.00;69.70;;;;;;4976943;28;20361;-45
2021/11/07 06:56:02;;;;;;;;;;;18.00;69.70;;;;;;4978095;28;20323;-51
2021/11/07 06:58:29;;;;;;;;;;;18.00;69.70;;;;;;4992621;28;19973;-45
2021/11/07 07:00:56;;;;;;;;;;;18.00;69.70;;;;;;4977697;28;20435;-52
2021/11/07 07:03:23;;;;;;;;;;;18.00;69.70;;;;;;4977914;28;19934;-50
2021/11/07 07:05:50;;;;;;;;;;;18.00;69.70;;;;;;4977864;28;19930;-47
2021/11/07 07:08:21;;;;;;;;;;;18.00;69.70;;;;;;4976792;28;20128;-50
2021/11/07 07:11:05;;;;;;;;;;;18.00;70.40;;;;;;4977839;28;19981;-46
2021/11/07 07:13:40;;;;;;;;;;;18.00;69.70;;;;;;4977806;28;19926;-50
2021/11/07 07:21:46;;;;;;;;;;;18.10;69.70;;;;;;4976605;28;19988;-45
2021/11/07 07:30:01;;;;;;;;;;;18.00;69.60;;;;;;4977174;28;19926;-47
2021/11/07 07:35:03;;;;;;;;;;;18.00;69.60;;;;;;4977128;28;19981;-45
2021/11/07 07:37:30;;;;;;;;;;;18.00;69.50;;;;;;4976070;28;19926;-47
2021/11/07 07:39:58;;;;;;;;;;;18.00;69.50;;;;;;4975934;28;19930;-48
2021/11/07 07:42:25;;;;;;;;;;;18.00;69.60;;;;;;4977165;28;20317;-47
2021/11/07 07:44:53;;;;;;;;;;;18.00;70.20;;;;;;4976882;28;19927;-49
2021/11/07 07:47:20;;;;;;;;;;;18.10;69.60;;;;;;4977075;28;19930;-48
2021/11/07 07:49:48;;;;;;;;;;;18.10;69.60;;;;;;4976795;28;19926;-46
2021/11/07 07:52:20;;;;;;;;;;;18.10;69.60;;;;;;4976122;28;19934;-48
2021/11/07 07:54:48;;;;;;;;;;;18.10;69.50;;;;;;4975586;28;20329;-46
2021/11/07 07:57:15;;;;;;;;;;;18.10;69.50;;;;;;4990917;28;19930;-48
2021/11/07 07:59:42;;;;;;;;;;;18.10;69.50;;;;;;4991514;28;19926;-50
2021/11/07 08:02:09;;;;;;;;;;;18.10;69.50;;;;;;4976797;28;19996;-45
2021/11/07 08:04:36;;;;;;;;;;;18.10;69.50;;;;;;4976824;28;20278;-50
2021/11/07 08:07:03;;;;;;;;;;;18.10;69.40;;;;;;4975786;28;19966;-49
2021/11/07 08:09:30;;;;;;;;;;;18.10;69.40;;;;;;4971723;28;19982;-50
2021/11/07 08:11:57;;;;;;;;;;;18.10;69.40;;;;;;4957032;29;20387;-46
2021/11/07 08:14:24;;;;;;;;;;;18.10;69.40;;;;;;4956763;28;19950;-47
2021/11/07 08:16:56;;;;;;;;;;;18.10;69.40;;;;;;4957073;28;20362;-45
2021/11/07 08:19:23;;;;;;;;;;;18.10;69.40;;;;;;4957212;29;20123;-47
2021/11/07 08:21:52;;;;;;;;;;;18.10;69.40;;;;;;4957667;28;19949;-45
2021/11/07 08:24:19;;;;;;;;;;;18.10;69.40;;;;;;4974908;28;19926;-50
2021/11/07 08:26:47;;;;;;;;;;;18.20;69.50;;;;;;4976386;28;19933;-50
2021/11/07 08:29:16;;;;;;;;;;;18.20;69.50;;;;;;4976345;28;20001;-45
2021/11/07 08:31:46;;;;;;;;;;;18.20;69.40;;;;;;4975981;28;20013;-45
2021/11/07 08:34:13;;;;;;;;;;;18.20;69.40;;;;;;4975951;28;19933;-44
2021/11/07 08:39:45;;;;;;;;;;;18.20;69.40;;;;;;4935107;29;19938;-45
2021/11/07 08:42:49;;;;;;;;;;;18.20;69.40;;;;;;4935367;29;20258;-44
2021/11/07 09:04:23;;;;;;;;;;;18.20;69.20;;;;;;4934861;29;19949;-44
2021/11/07 09:09:36;;;;;;;;;;;18.20;69.20;;;;;;4933798;29;19958;-45
2021/11/07 09:12:04;;;;;;;;;;;18.20;69.30;;;;;;4934345;29;19930;-45
2021/11/07 09:14:37;;;;;;;;;;;18.20;69.20;;;;;;4941694;28;19973;-45
2021/11/07 09:17:06;;;;;;;;;;;18.20;69.20;;;;;;4974657;28;19927;-45
2021/11/07 09:19:35;;;;;;;;;;;18.20;69.20;;;;;;4975163;28;19926;-45
2021/11/07 09:22:17;;;;;;;;;;;18.20;69.10;;;;;;4975349;28;20345;-44
2021/11/07 09:24:54;;;;;;;;;;;18.20;69.00;;;;;;4970658;28;19977;-47
2021/11/07 09:27:29;;;;;;;;;;;18.20;68.90;;;;;;4975088;28;19949;-46
2021/11/07 09:35:38;;;;;;;;;;;18.20;68.80;;;;;;4975005;28;20374;-45
2021/11/07 09:37:49;;;;;;;;;;;18.30;68.90;;;;;;4976209;28;20293;-46
2021/11/07 09:40:18;;;;;;;;;;;18.30;68.80;;;;;;4957604;28;19941;-45
2021/11/07 09:45:25;;;;;;;;;;;18.30;68.70;;;;;;4975460;28;19938;-45
2021/11/07 09:47:57;;;;;;;;;;;18.30;68.70;;;;;;4974955;28;19926;-47
2021/11/07 09:50:25;;;;;;;;;;;18.30;68.70;;;;;;4975245;28;20285;-45
2021/11/07 09:52:54;;;;;;;;;;;18.30;68.70;;;;;;4974060;28;19930;-45
2021/11/07 09:55:23;;;;;;;;;;;18.30;68.70;;;;;;4973699;28;19930;-45
2021/11/07 09:57:52;;;;;;;;;;;18.30;68.70;;;;;;4974793;28;20386;-45
2021/11/07 10:00:25;;;;;;;;;;;18.30;68.70;;;;;;4974773;28;19933;-45
2021/11/07 10:02:52;;;;;;;;;;;18.30;68.60;;;;;;4974648;28;19926;-47
2021/11/07 10:05:20;;;;;;;;;;;18.30;68.60;;;;;;4974715;28;19934;-48
2021/11/07 10:07:55;;;;;;;;;;;18.30;68.60;;;;;;4974703;28;20390;-52
2021/11/07 10:10:24;;;;;;;;;;;18.30;68.50;;;;;;4973788;28;19926;-50
2021/11/07 10:12:55;;;;;;;;;;;18.30;68.50;;;;;;4955368;28;19926;-50
2021/11/07 10:15:45;;;;;;;;;;;18.30;68.40;;;;;;4955639;28;19926;-48
2021/11/07 10:18:21;;;;;;;;;;;18.30;68.40;;;;;;4955614;28;19927;-52
2021/11/07 10:20:53;;;;;;;;;;;18.30;68.20;;;;;;4959097;28;19926;-52
2021/11/07 10:23:26;;;;;;;;;;;18.30;68.10;;;;;;4960623;28;19930;-48
2021/11/07 10:31:31;;;;;;;;;;;18.40;68.20;;;;;;4978580;28;19926;-48
2021/11/07 10:34:15;;;;;;;;;;;18.40;68.10;;;;;;4978525;28;20357;-52
2021/11/07 10:52:39;;;;;;;;;;;18.50;67.90;;;;;;4978172;28;19973;-51
2021/11/07 10:55:14;;;;;;;;;;;18.50;68.00;;;;;;4976796;28;19926;-44
2021/11/07 10:57:43;;;;;;;;;;;18.50;68.00;;;;;;4977422;28;19989;-45
2021/11/07 11:00:16;;;;;;;;;;;18.50;68.10;;;;;;4978065;28;20346;-45
2021/11/07 11:02:45;;;;;;;;;;;18.50;68.10;;;;;;4977647;28;19977;-48
2021/11/07 11:05:14;;;;;;;;;;;18.50;68.00;;;;;;4977975;28;20341;-44
2021/11/07 11:08:24;;;;;;;;;;;18.50;67.90;;;;;;4977922;28;19949;-45
2021/11/07 11:11:19;;;;;;;;;;;18.50;67.70;;;;;;4974626;28;19934;-44
2021/11/07 11:16:31;;;;;;;;;;;18.50;67.60;;;;;;4956105;29;19966;-45
2021/11/07 11:24:25;;;;;;;;;;;18.50;67.50;;;;;;4958976;28;19976;-46
2021/11/07 11:27:06;;;;;;;;;;;18.50;67.60;;;;;;4974505;28;20377;-44
2021/11/07 11:32:31;;;;;;;;;;;18.50;67.60;;;;;;4975100;28;19981;-44
2021/11/07 11:35:04;;;;;;;;;;;18.50;67.60;;;;;;4975161;28;19970;-44
2021/11/07 11:40:45;;;;;;;;;;;18.50;67.60;;;;;;4974093;28;20427;-48
2021/11/07 11:45:35;;;;;;;;;;;18.50;67.60;;;;;;4975129;28;19978;-46
2021/11/07 11:48:12;;;;;;;;;;;18.50;67.50;;;;;;4976933;28;19980;-49
2021/11/07 11:53:28;;;;;;;;;;;18.50;67.50;;;;;;4976621;28;19927;-47
2021/11/07 11:56:19;;;;;;;;;;;18.50;67.40;;;;;;4975754;28;20295;-47
2021/11/07 12:01:22;;;;;;;;;;;18.50;67.40;;;;;;4976619;28;19977;-47
2021/11/07 12:06:44;;;;;;;;;;;18.50;67.50;;;;;;4976529;28;19981;-45
2021/11/07 12:09:20;;;;;;;;;;;18.50;67.40;;;;;;4975917;28;20345;-46
2021/11/07 12:11:58;;;;;;;;;;;18.50;67.40;;;;;;4975424;28;19926;-49
2021/11/07 12:14:34;;;;;;;;;;;18.50;67.40;;;;;;4976377;28;20034;-48
2021/11/07 12:17:10;;;;;;;;;;;18.50;67.40;;;;;;4976244;28;19937;-46
2021/11/07 12:19:44;;;;;;;;;;;18.50;67.40;;;;;;4976284;28;20029;-50
2021/11/07 12:22:18;;;;;;;;;;;18.50;67.40;;;;;;4976535;28;20317;-44
2021/11/07 12:24:49;;;;;;;;;;;18.50;67.40;;;;;;4975067;28;20416;-45
2021/11/07 12:27:22;;;;;;;;;;;18.60;67.50;;;;;;4975583;28;19996;-45
2021/11/07 12:29:52;;;;;;;;;;;18.50;67.40;;;;;;4976195;28;20294;-45
2021/11/07 12:32:22;;;;;;;;;;;18.50;67.30;;;;;;4975846;28;19981;-45
2021/11/07 12:34:49;;;;;;;;;;;18.60;67.30;;;;;;4975381;28;20385;-45
2021/11/07 12:40:33;;;;;;;;;;;18.60;67.20;;;;;;4934422;29;19934;-48
2021/11/07 12:43:03;;;;;;;;;;;18.60;67.20;;;;;;4932969;29;20346;-45
2021/11/07 12:45:34;;;;;;;;;;;18.60;67.20;;;;;;4933517;29;19927;-51
2021/11/07 12:48:05;;;;;;;;;;;18.60;67.20;;;;;;4934003;29;20346;-51
2021/11/07 12:50:55;;;;;;;;;;;18.60;67.20;;;;;;4934806;29;19966;-49
2021/11/07 12:53:24;;;;;;;;;;;18.60;67.20;;;;;;4934971;29;19934;-51
2021/11/07 12:55:51;;;;;;;;;;;18.60;67.20;;;;;;4933909;29;19990;-45
2021/11/07 12:58:19;;;;;;;;;;;18.60;67.20;;;;;;4934186;29;19926;-47
2021/11/07 13:00:46;;;;;;;;;;;18.60;67.20;;;;;;4935086;29;20390;-46
2021/11/07 13:03:15;;;;;;;;;;;18.60;67.20;;;;;;4934933;29;19927;-45
2021/11/07 13:05:43;;;;;;;;;;;18.60;67.20;;;;;;4935045;29;19931;-44
2021/11/07 13:08:21;;;;;;;;;;;18.50;67.10;;;;;;4934962;29;19969;-45
2021/11/07 13:10:56;;;;;;;;;;;18.50;67.10;;;;;;4934009;29;19933;-45
2021/11/07 13:13:32;;;;;;;;;;;18.50;67.20;;;;;;4934199;29;19927;-45
2021/11/07 13:35:04;;;;;;;;;;;18.40;67.40;;;;;;4975130;28;19957;-44
2021/11/07 13:37:37;;;;;;;;;;;18.40;67.40;;;;;;4975036;28;20382;-44
2021/11/07 13:40:10;;;;;;;;;;;18.40;67.40;;;;;;4974920;28;19930;-46
2021/11/07 13:42:38;;;;;;;;;;;18.40;67.50;;;;;;4974881;28;19995;-45
2021/11/07 13:45:11;;;;;;;;;;;18.40;67.40;;;;;;4974401;28;19930;-45
2021/11/07 13:47:41;;;;;;;;;;;18.40;67.50;;;;;;4974982;28;19926;-45
2021/11/07 13:50:10;;;;;;;;;;;18.40;67.50;;;;;;4974946;28;19933;-52
2021/11/07 13:52:39;;;;;;;;;;;18.40;68.20;;;;;;4975188;28;19937;-53
2021/11/07 13:55:25;;;;;;;;;;;18.40;67.50;;;;;;4977373;28;20290;-47
2021/11/07 13:57:52;;;;;;;;;;;18.40;67.50;;;;;;4959425;28;19930;-51
2021/11/07 14:00:21;;;;;;;;;;;18.40;67.50;;;;;;4960013;28;19954;-52
2021/11/07 14:02:51;;;;;;;;;;;18.40;67.60;;;;;;4959700;28;19982;-51
2021/11/07 14:05:19;;;;;;;;;;;18.40;67.70;;;;;;4959412;28;19977;-48
2021/11/07 14:08:05;;;;;;;;;;;18.40;67.60;;;;;;4959373;28;19934;-48
2021/11/07 14:10:34;;;;;;;;;;;18.40;67.60;;;;;;4959520;28;19926;-50
2021/11/07 14:13:06;;;;;;;;;;;18.40;67.60;;;;;;4993485;28;19929;-50
2021/11/07 14:15:35;;;;;;;;;;;18.40;67.60;;;;;;4978491;28;19926;-51
2021/11/07 14:18:10;;;;;;;;;;;18.40;67.50;;;;;;4978536;28;19933;-47
2021/11/07 14:20:42;;;;;;;;;;;18.40;67.60;;;;;;4978800;28;19930;-47
2021/11/07 14:23:20;;;;;;;;;;;18.40;67.60;;;;;;4978527;28;20000;-52
2021/11/07 14:25:50;;;;;;;;;;;18.40;67.60;;;;;;4977735;28;20001;-50
2021/11/07 14:28:23;;;;;;;;;;;18.40;67.60;;;;;;4977920;28;19973;-44
2021/11/07 14:30:51;;;;;;;;;;;18.40;67.60;;;;;;4959335;28;20275;-51
2021/11/07 14:33:27;;;;;;;;;;;18.40;67.70;;;;;;4958923;28;19933;-46
2021/11/07 14:36:01;;;;;;;;;;;18.30;67.50;;;;;;4958935;28;20370;-51
2021/11/07 14:38:37;;;;;;;;;;;18.40;67.70;;;;;;4959750;28;19954;-45
2021/11/07 14:41:20;;;;;;;;;;;18.40;67.70;;;;;;4960805;28;19930;-45
2021/11/07 14:50:25;;;;;;;;;;;18.40;67.70;;;;;;4958647;28;20444;-51
2021/11/07 14:55:09;;;;;;;;;;;18.40;67.70;;;;;;4958357;28;19962;-48
2021/11/07 15:00:16;;;;;;;;;;;18.30;67.70;;;;;;4977057;28;20341;-48
2021/11/07 15:05:26;;;;;;;;;;;18.30;67.70;;;;;;4977331;28;19930;-49
2021/11/07 15:08:11;;;;;;;;;;;18.30;67.70;;;;;;4977929;28;19985;-46
2021/11/07 15:10:49;;;;;;;;;;;18.30;67.70;;;;;;4977892;28;19926;-50
2021/11/07 15:19:48;;;;;;;;;;;18.30;67.80;;;;;;4937099;29;20013;-45
2021/11/07 15:22:24;;;;;;;;;;;18.30;67.80;;;;;;4936906;29;19927;-45
2021/11/07 15:25:05;;;;;;;;;;;18.20;67.80;;;;;;4936899;29;19930;-49
2021/11/07 15:27:32;;;;;;;;;;;18.20;67.80;;;;;;4935893;29;19927;-45
2021/11/07 15:30:01;;;;;;;;;;;18.20;67.90;;;;;;4936022;29;19958;-48
2021/11/07 15:32:37;;;;;;;;;;;18.20;67.90;;;;;;4936689;29;19927;-47
2021/11/07 15:35:16;;;;;;;;;;;18.20;67.90;;;;;;4936741;29;19930;-48
2021/11/07 15:37:43;;;;;;;;;;;18.20;68.00;;;;;;4936845;29;19927;-49
2021/11/07 15:40:11;;;;;;;;;;;18.30;68.10;;;;;;4936575;29;19927;-47
2021/11/07 15:42:39;;;;;;;;;;;18.20;68.00;;;;;;4935596;29;19986;-45
2021/11/07 15:45:11;;;;;;;;;;;18.20;68.10;;;;;;4936067;29;19931;-44
2021/11/07 15:47:45;;;;;;;;;;;18.20;68.20;;;;;;4936450;29;20391;-47
2021/11/07 15:55:30;;;;;;;;;;;18.20;68.20;;;;;;4976665;28;19949;-45
2021/11/07 15:58:22;;;;;;;;;;;18.20;68.20;;;;;;4975747;28;19931;-45
2021/11/07 16:09:16;;;;;;;;;;;18.10;68.30;;;;;;4977406;28;19976;-45
2021/11/07 16:16:44;;;;;;;;;;;18.10;68.40;;;;;;4972081;28;19973;-51
2021/11/07 16:19:33;;;;;;;;;;;18.10;68.40;;;;;;4991326;28;19926;-51
2021/11/07 16:22:00;;;;;;;;;;;18.10;68.40;;;;;;4976570;28;19942;-47
2021/11/07 16:24:30;;;;;;;;;;;18.10;68.40;;;;;;4976347;28;20258;-45
2021/11/07 16:27:02;;;;;;;;;;;18.10;68.40;;;;;;4975565;28;19929;-48
2021/11/07 16:29:31;;;;;;;;;;;18.10;68.40;;;;;;4976142;28;20378;-46
2021/11/07 16:32:14;;;;;;;;;;;18.10;68.40;;;;;;4975222;28;19974;-45
2021/11/07 16:35:08;;;;;;;;;;;18.10;68.50;;;;;;4976368;28;19989;-44
2021/11/07 16:37:35;;;;;;;;;;;18.10;68.50;;;;;;4975934;28;19984;-46
2021/11/07 16:40:13;;;;;;;;;;;18.10;68.50;;;;;;4976255;28;19926;-45
2021/11/07 16:42:41;;;;;;;;;;;18.10;68.50;;;;;;4974937;28;19926;-44
2021/11/07 16:45:09;;;;;;;;;;;18.10;68.50;;;;;;4975662;28;20398;-45
2021/11/07 16:47:39;;;;;;;;;;;18.10;68.50;;;;;;4974941;28;19930;-45
2021/11/07 16:50:09;;;;;;;;;;;18.10;68.50;;;;;;4976014;28;19934;-46
2021/11/07 16:52:50;;;;;;;;;;;18.10;68.50;;;;;;4975642;28;19936;-45
2021/11/07 16:58:04;;;;;;;;;;;18.10;68.60;;;;;;4974945;28;19926;-45
2021/11/07 17:00:45;;;;;;;;;;;18.10;68.50;;;;;;4974572;28;19934;-45
2021/11/07 17:03:35;;;;;;;;;;;18.00;68.50;;;;;;4975534;28;20385;-45
2021/11/07 17:08:36;;;;;;;;;;;18.00;68.50;;;;;;4975441;28;19926;-46
2021/11/07 17:11:07;;;;;;;;;;;18.00;68.50;;;;;;4975710;28;20290;-44
2021/11/07 17:13:36;;;;;;;;;;;18.00;68.50;;;;;;4988813;28;19926;-45
2021/11/07 17:16:47;;;;;;;;;;;18.00;68.60;;;;;;4974708;28;19926;-44
2021/11/07 17:18:54;;;;;;;;;;;18.00;68.60;;;;;;4970066;28;20390;-44
2021/11/07 17:21:34;;;;;;;;;;;18.10;68.70;;;;;;4975220;28;19930;-45
2021/11/07 17:24:18;;;;;;;;;;;18.00;68.60;;;;;;4975007;28;19933;-45
2021/11/07 17:27:06;;;;;;;;;;;18.00;68.50;;;;;;4975520;28;20365;-44
2021/11/07 17:29:51;;;;;;;;;;;18.00;68.60;;;;;;4974329;28;19988;-44
2021/11/07 17:34:54;;;;;;;;;;;18.00;68.60;;;;;;4975083;28;20399;-46
2021/11/07 17:37:25;;;;;;;;;;;18.00;68.60;;;;;;4975371;28;19933;-46
2021/11/07 17:56:02;;;;;;;;;;;18.00;68.50;;;;;;4974911;28;20385;-49
2021/11/07 17:58:30;;;;;;;;;;;18.00;68.50;;;;;;4974221;28;19949;-51
2021/11/07 18:00:57;;;;;;;;;;;18.00;68.50;;;;;;4972873;28;20020;-50
2021/11/07 18:03:24;;;;;;;;;;;18.00;68.50;;;;;;4955810;28;19933;-50
2021/11/07 18:05:51;;;;;;;;;;;18.00;68.50;;;;;;4955432;28;19978;-44